createdAt,value
2023-02-15T00:00:25.287Z,7.90
2023-02-15T00:03:13.681Z,8.50
2023-02-15T00:05:42.308Z,8.00
2023-02-15T00:08:10.556Z,8.80
2023-02-15T00:10:39.035Z,10.20
2023-02-15T00:13:07.519Z,8.00
2023-02-15T00:15:35.902Z,8.40
2023-02-15T00:18:04.892Z,8.90
2023-02-15T00:20:33.488Z,8.90
2023-02-15T00:23:01.747Z,7.70
2023-02-15T00:25:30.556Z,9.50
2023-02-15T00:28:01.491Z,9.30
2023-02-15T00:30:29.922Z,9.00
2023-02-15T00:32:58.379Z,8.30
2023-02-15T00:35:26.820Z,9.50
2023-02-15T00:37:55.094Z,8.90
2023-02-15T00:40:24.084Z,8.10
2023-02-15T00:42:52.359Z,8.80
2023-02-15T00:45:22.583Z,10.10
2023-02-15T00:47:50.962Z,8.20
2023-02-15T00:50:20.238Z,10.20
2023-02-15T00:52:49.661Z,8.80
2023-02-15T00:55:18.252Z,8.90
2023-02-15T00:57:46.624Z,8.90
2023-02-15T01:00:15.625Z,9.40
2023-02-15T01:02:44.028Z,9.00
2023-02-15T01:05:12.702Z,9.90
2023-02-15T01:07:41.083Z,9.40
2023-02-15T01:10:09.982Z,8.80
2023-02-15T01:12:38.340Z,8.30
2023-02-15T01:15:08.659Z,9.70
2023-02-15T01:17:37.069Z,9.00
2023-02-15T01:20:07.447Z,9.40
2023-02-15T01:22:35.711Z,9.00
2023-02-15T01:25:04.633Z,8.00
2023-02-15T01:27:32.917Z,9.50
2023-02-15T01:30:02.058Z,7.80
2023-02-15T01:32:30.588Z,8.70
2023-02-15T01:34:59.076Z,8.60
2023-02-15T01:37:28.979Z,8.90
2023-02-15T01:39:57.820Z,9.80
2023-02-15T01:42:27.595Z,7.80
2023-02-15T01:44:59.317Z,8.60
2023-02-15T01:47:45.141Z,8.60
2023-02-15T01:50:39.472Z,9.20
2023-02-15T01:53:16.892Z,7.40
2023-02-15T01:55:52.874Z,8.00
2023-02-15T01:58:23.999Z,8.60
2023-02-15T02:00:55.277Z,8.90
2023-02-15T02:03:37.769Z,8.10
2023-02-15T02:06:07.359Z,8.50
2023-02-15T02:08:35.845Z,9.40
2023-02-15T02:11:04.118Z,9.90
2023-02-15T02:13:32.948Z,8.50
2023-02-15T02:16:19.983Z,7.90
2023-02-15T02:18:59.562Z,9.20
2023-02-15T02:22:03.402Z,8.60
2023-02-15T02:28:38.900Z,8.80
2023-02-15T02:31:29.587Z,9.40
2023-02-15T02:34:10.104Z,8.60
2023-02-15T02:36:48.724Z,8.70
2023-02-15T02:39:51.513Z,8.90
2023-02-15T02:42:37.110Z,8.00
2023-02-15T02:45:11.300Z,8.50
2023-02-15T02:47:54.794Z,8.50
2023-02-15T02:50:29.298Z,8.80
2023-02-15T02:52:59.896Z,9.20
2023-02-15T02:55:43.246Z,8.00
2023-02-15T02:58:21.180Z,9.70
2023-02-15T03:01:07.076Z,8.80
2023-02-15T03:03:45.458Z,7.20
2023-02-15T03:06:20.069Z,9.30
2023-02-15T03:09:42.733Z,9.20
2023-02-15T03:12:21.732Z,9.10
2023-02-15T03:15:05.739Z,8.30
2023-02-15T03:17:38.973Z,9.40
2023-02-15T03:20:26.573Z,8.70
2023-02-15T03:23:03.072Z,8.70
2023-02-15T03:25:37.733Z,9.40
2023-02-15T03:28:16.280Z,9.30
2023-02-15T03:30:49.272Z,9.40
2023-02-15T03:33:19.222Z,9.00
2023-02-15T03:35:58.079Z,9.80
2023-02-15T03:38:44.748Z,8.70
2023-02-15T03:41:15.893Z,9.30
2023-02-15T03:43:44.372Z,8.50
2023-02-15T03:46:16.764Z,9.10
2023-02-15T03:48:53.149Z,9.30
2023-02-15T03:51:36.029Z,9.20
2023-02-15T03:54:10.455Z,10.20
2023-02-15T03:56:42.620Z,9.40
2023-02-15T03:59:29.457Z,9.10
2023-02-15T04:02:23.737Z,9.20
2023-02-15T04:04:52.285Z,9.40
2023-02-15T04:07:20.673Z,9.80
2023-02-15T04:10:07.686Z,9.90
2023-02-15T04:12:36.073Z,10.70
2023-02-15T04:15:23.695Z,10.60
2023-02-15T04:17:52.076Z,11.40
2023-02-15T04:20:39.500Z,9.90
2023-02-15T04:23:26.922Z,10.10
2023-02-15T04:25:55.254Z,10.70
2023-02-15T04:28:23.818Z,9.80
2023-02-15T04:30:52.186Z,9.70
2023-02-15T04:33:20.741Z,9.10
2023-02-15T04:35:49.472Z,9.90
2023-02-15T04:38:18.015Z,9.50
2023-02-15T04:40:51.210Z,10.60
2023-02-15T04:43:23.251Z,10.50
2023-02-15T04:45:53.126Z,10.40
2023-02-15T04:48:21.576Z,10.20
2023-02-15T04:50:50.039Z,10.20
2023-02-15T04:53:19.471Z,9.20
2023-02-15T04:55:48.037Z,11.40
2023-02-15T04:58:16.715Z,10.40
2023-02-15T05:00:45.400Z,11.00
2023-02-15T05:03:14.082Z,10.80
2023-02-15T05:05:42.937Z,11.10
2023-02-15T05:08:11.356Z,9.40
2023-02-15T05:10:39.730Z,11.10
2023-02-15T05:13:08.322Z,10.20
2023-02-15T05:15:37.238Z,11.30
2023-02-15T05:18:07.630Z,10.90
2023-02-15T05:20:36.317Z,10.90
2023-02-15T05:23:05.357Z,9.90
2023-02-15T05:25:52.876Z,9.90
2023-02-15T05:28:22.134Z,10.40
2023-02-15T05:31:15.517Z,9.80
2023-02-15T05:33:46.140Z,11.30
2023-02-15T05:36:16.097Z,11.40
2023-02-15T05:38:45.049Z,9.10
2023-02-15T05:41:14.062Z,10.70
2023-02-15T05:43:43.548Z,10.70
2023-02-15T05:46:13.599Z,10.90
2023-02-15T05:48:43.272Z,9.00
2023-02-15T05:51:15.378Z,10.00
2023-02-15T05:53:44.548Z,10.80
2023-02-15T05:56:13.669Z,11.10
2023-02-15T05:58:43.158Z,10.20
2023-02-15T06:01:19.527Z,9.60
2023-02-15T06:03:48.775Z,10.30
2023-02-15T06:06:17.733Z,8.90
2023-02-15T06:08:46.582Z,10.60
2023-02-15T06:11:16.912Z,10.20
2023-02-15T06:13:45.408Z,12.50
2023-02-15T06:16:17.414Z,10.30
2023-02-15T06:18:47.352Z,12.40
2023-02-15T06:21:17.543Z,11.90
2023-02-15T06:23:48.040Z,11.30
2023-02-15T06:26:17.432Z,11.30
2023-02-15T06:28:46.307Z,12.80
2023-02-15T06:31:15.208Z,12.00
2023-02-15T06:33:47.918Z,11.20
2023-02-15T06:36:18.722Z,10.90
2023-02-15T06:38:47.894Z,11.40
2023-02-15T06:41:17.474Z,11.10
2023-02-15T06:43:48.142Z,12.40
2023-02-15T06:46:17.368Z,10.50
2023-02-15T06:48:46.855Z,10.90
2023-02-15T06:51:16.522Z,10.10
2023-02-15T06:53:46.560Z,11.70
2023-02-15T06:56:15.468Z,10.80
2023-02-15T06:58:47.173Z,10.80
2023-02-15T07:01:17.821Z,10.40
2023-02-15T07:03:47.159Z,10.60
2023-02-15T07:06:16.064Z,9.80
2023-02-15T07:08:45.139Z,10.70
2023-02-15T07:11:32.664Z,10.90
2023-02-15T07:14:02.591Z,10.30
2023-02-15T07:16:31.451Z,10.90
2023-02-15T07:19:00.456Z,11.00
2023-02-15T07:21:30.160Z,11.80
2023-02-15T07:24:00.199Z,9.60
2023-02-15T07:26:32.193Z,10.20
2023-02-15T07:29:01.139Z,12.10
2023-02-15T07:31:29.864Z,10.40
2023-02-15T07:34:00.743Z,9.80
2023-02-15T07:36:30.014Z,10.80
2023-02-15T07:38:59.570Z,10.70
2023-02-15T07:41:30.414Z,11.20
2023-02-15T07:44:01.558Z,11.40
2023-02-15T07:46:35.182Z,9.40
2023-02-15T07:49:06.327Z,8.20
2023-02-15T07:51:36.611Z,9.40
2023-02-15T07:54:06.640Z,9.30
2023-02-15T07:56:37.622Z,8.90
2023-02-15T07:59:06.694Z,10.30
2023-02-15T08:01:38.280Z,9.90
2023-02-15T08:04:08.934Z,8.70
2023-02-15T08:06:39.726Z,8.40
2023-02-15T08:09:10.348Z,8.60
2023-02-15T08:11:40.948Z,7.70
2023-02-15T08:14:25.716Z,8.70
2023-02-15T08:16:57.481Z,9.40
2023-02-15T08:19:31.960Z,8.90
2023-02-15T08:22:04.281Z,8.70
2023-02-15T08:24:35.650Z,7.10
2023-02-15T08:27:06.437Z,7.30
2023-02-15T08:29:36.653Z,8.60
2023-02-15T08:32:08.988Z,6.90
2023-02-15T08:34:40.396Z,8.90
2023-02-15T08:37:09.712Z,8.00
2023-02-15T08:39:38.701Z,8.40
2023-02-15T08:42:07.902Z,8.00
2023-02-15T08:44:36.811Z,9.00
2023-02-15T08:47:06.550Z,9.40
2023-02-15T08:49:36.605Z,8.20
2023-02-15T08:52:05.539Z,6.70
2023-02-15T08:54:35.319Z,7.90
2023-02-15T08:57:05.312Z,7.40
2023-02-15T08:59:34.228Z,7.40
2023-02-15T09:02:04.654Z,8.00
2023-02-15T09:04:40.514Z,6.30
2023-02-15T09:07:14.614Z,6.20
2023-02-15T09:09:46.792Z,5.60
2023-02-15T09:12:16.630Z,5.50
2023-02-15T09:14:47.207Z,5.70
2023-02-15T09:17:16.326Z,6.20
2023-02-15T09:19:45.617Z,5.90
2023-02-15T09:22:18.658Z,6.10
2023-02-15T09:24:50.183Z,5.70
2023-02-15T09:27:19.556Z,5.60
2023-02-15T09:29:50.463Z,5.30
2023-02-15T09:32:19.809Z,4.80
2023-02-15T09:34:48.688Z,4.50
2023-02-15T09:37:18.694Z,4.80
2023-02-15T09:39:49.334Z,4.60
2023-02-15T09:42:54.378Z,5.20
2023-02-15T09:45:59.763Z,5.50
2023-02-15T09:48:46.922Z,4.30
2023-02-15T09:51:58.779Z,5.00
2023-02-15T09:54:27.380Z,4.30
2023-02-15T09:57:19.455Z,4.30
2023-02-15T10:00:25.209Z,4.20
2023-02-15T10:03:18.296Z,4.60
2023-02-15T10:05:46.643Z,3.20
2023-02-15T10:08:28.448Z,4.20
2023-02-15T10:11:36.168Z,4.30
2023-02-15T10:14:16.450Z,4.30
2023-02-15T10:17:03.591Z,5.30
2023-02-15T10:19:35.214Z,3.60
2023-02-15T10:22:37.748Z,4.20
2023-02-15T10:25:18.833Z,4.20
2023-02-15T10:27:49.682Z,4.40
2023-02-15T10:30:38.211Z,3.60
2023-02-15T10:33:23.805Z,3.70
2023-02-15T10:36:04.680Z,4.30
2023-02-15T10:39:11.765Z,5.50
2023-02-15T10:42:08.361Z,4.00
2023-02-15T10:44:50.915Z,4.10
2023-02-15T10:47:29.289Z,4.00
2023-02-15T10:50:24.302Z,4.70
2023-02-15T10:55:57.445Z,4.60
2023-02-15T10:58:50.996Z,4.10
2023-02-15T11:01:52.841Z,4.50
2023-02-15T11:04:31.970Z,3.30
2023-02-15T11:07:10.876Z,3.50
2023-02-15T11:09:51.021Z,4.70
2023-02-15T11:12:27.782Z,4.50
2023-02-15T11:15:27.224Z,5.30
2023-02-15T11:18:13.430Z,4.30
2023-02-15T11:21:01.519Z,4.20
2023-02-15T11:23:34.548Z,4.00
2023-02-15T11:26:10.077Z,4.90
2023-02-15T11:28:46.278Z,4.70
2023-02-15T11:31:23.096Z,5.00
2023-02-15T11:34:02.190Z,4.40
2023-02-15T11:36:39.461Z,4.10
2023-02-15T11:39:15.846Z,4.40
2023-02-15T11:42:11.895Z,3.90
2023-02-15T11:45:06.770Z,3.70
2023-02-15T11:47:35.251Z,4.20
2023-02-15T11:50:04.559Z,4.00
2023-02-15T11:52:34.914Z,4.70
2023-02-15T11:55:03.968Z,4.20
2023-02-15T11:57:33.482Z,4.60
2023-02-15T12:00:20.618Z,3.80
2023-02-15T12:02:54.409Z,5.50
2023-02-15T12:05:28.711Z,4.30
2023-02-15T12:08:11.742Z,4.90
2023-02-15T12:11:27.154Z,4.00
2023-02-15T12:14:17.835Z,3.70
2023-02-15T12:16:57.534Z,4.50
2023-02-15T12:19:44.084Z,4.70
2023-02-15T12:22:25.516Z,4.40
2023-02-15T12:24:59.537Z,4.30
2023-02-15T12:27:36.726Z,4.20
2023-02-15T12:30:31.924Z,3.90
2023-02-15T12:33:39.587Z,3.90
2023-02-15T12:36:16.346Z,3.90
2023-02-15T12:39:22.321Z,4.40
2023-02-15T12:42:30.325Z,4.10
2023-02-15T12:45:05.562Z,4.40
2023-02-15T12:47:41.197Z,3.90
2023-02-15T12:50:35.288Z,4.10
2023-02-15T12:53:14.821Z,3.50
2023-02-15T12:56:00.664Z,4.10
2023-02-15T12:58:32.484Z,3.60
2023-02-15T19:41:07.555Z,9.70
2023-02-15T19:43:35.678Z,11.80
2023-02-15T19:46:04.106Z,11.00
2023-02-15T19:48:32.027Z,9.50
2023-02-15T19:51:02.511Z,10.30
2023-02-15T19:53:35.341Z,9.30
2023-02-15T19:56:07.459Z,9.70
2023-02-15T19:58:35.582Z,10.10
2023-02-15T20:01:05.634Z,11.10
2023-02-15T20:03:36.598Z,9.60
2023-02-15T20:06:10.408Z,8.80
2023-02-15T20:08:38.462Z,8.90
2023-02-15T20:11:11.062Z,8.00
2023-02-15T20:13:41.502Z,7.10
2023-02-15T20:16:09.929Z,9.70
2023-02-15T20:18:45.920Z,7.60
2023-02-15T20:21:16.222Z,9.00
2023-02-15T20:23:43.884Z,7.70
2023-02-15T20:26:17.692Z,8.30
2023-02-15T20:28:45.908Z,8.30
2023-02-15T20:31:19.998Z,8.20
2023-02-15T20:33:48.379Z,8.40
2023-02-15T20:36:18.572Z,7.20
2023-02-15T20:38:46.961Z,8.10
2023-02-15T20:41:36.304Z,8.10
2023-02-15T20:44:28.672Z,9.90
2023-02-15T20:46:58.572Z,9.70
2023-02-15T20:49:27.705Z,8.60
2023-02-15T20:51:56.732Z,8.30
2023-02-15T20:54:26.609Z,8.80
2023-02-15T20:56:56.813Z,9.40
2023-02-15T20:59:26.327Z,9.40
2023-02-15T21:01:59.277Z,10.10
2023-02-15T21:04:33.636Z,9.30
2023-02-15T21:07:02.419Z,9.90
2023-02-15T21:09:29.875Z,8.70
2023-02-15T21:14:27.952Z,9.50
2023-02-15T21:16:55.392Z,9.60
2023-02-15T21:19:24.425Z,10.40
2023-02-15T21:21:53.376Z,10.30
2023-02-15T21:24:23.418Z,10.30
2023-02-15T21:26:51.878Z,10.40
2023-02-15T21:29:23.660Z,9.30
2023-02-15T21:31:51.685Z,7.90
2023-02-15T21:34:19.888Z,9.20
2023-02-15T21:36:50.072Z,8.90
2023-02-15T21:39:20.214Z,9.70
2023-02-15T21:42:08.303Z,7.90
2023-02-15T21:44:54.359Z,8.50
2023-02-15T21:47:41.703Z,8.00
2023-02-15T21:50:33.793Z,8.40
2023-02-15T21:53:04.259Z,9.10
2023-02-15T21:55:32.730Z,9.10
2023-02-15T21:58:01.501Z,8.80
2023-02-15T22:03:00.474Z,8.40
2023-02-15T22:05:33.365Z,8.40
2023-02-15T22:08:00.930Z,8.60
2023-02-15T22:10:34.612Z,8.40
2023-02-15T22:13:03.305Z,8.50
2023-02-15T22:15:36.873Z,9.10
2023-02-15T22:18:05.026Z,10.00
2023-02-15T22:20:31.998Z,9.00
2023-02-15T22:22:59.329Z,8.80
2023-02-15T22:25:26.879Z,10.40
2023-02-15T22:27:55.059Z,9.20
2023-02-15T22:30:25.025Z,8.20
2023-02-15T22:32:56.825Z,10.00
2023-02-15T22:35:27.773Z,9.90
2023-02-15T22:37:57.064Z,10.10
2023-02-15T22:40:34.009Z,9.50
2023-02-15T22:45:35.161Z,10.20
2023-02-15T22:48:02.563Z,8.10
2023-02-15T22:50:32.624Z,9.40
2023-02-15T22:53:01.280Z,8.70
2023-02-15T22:55:32.246Z,9.70
2023-02-15T22:58:00.214Z,9.40
2023-02-15T23:00:33.520Z,9.90
2023-02-15T23:03:01.242Z,10.10
2023-02-15T23:05:30.542Z,9.60
2023-02-15T23:07:57.678Z,10.20
2023-02-15T23:10:28.649Z,9.60
2023-02-15T23:13:17.871Z,10.30
2023-02-15T23:15:55.045Z,10.40
2023-02-15T23:18:36.439Z,9.90
2023-02-15T23:21:20.289Z,8.10
2023-02-15T23:23:52.022Z,11.00
2023-02-15T23:26:28.413Z,9.30
2023-02-15T23:28:58.515Z,9.10
2023-02-15T23:31:31.740Z,9.10
2023-02-15T23:34:01.241Z,8.60
2023-02-15T23:36:36.365Z,9.00
2023-02-15T23:39:39.354Z,10.00
2023-02-15T23:42:11.478Z,9.80
2023-02-15T23:44:40.304Z,9.90
2023-02-15T23:47:20.058Z,10.30
2023-02-15T23:49:47.139Z,9.20
2023-02-15T23:54:41.098Z,9.50
2023-02-15T23:57:12.471Z,10.70
2023-02-15T23:59:43.706Z,10.60
